sensor_id;sensor_type;location;lat;lon;timestamp;temperature;humidity
48535;DHT22;34323;52.022;5.686;2023-02-28T00:00:22;5.00;99.90
48535;DHT22;34323;52.022;5.686;2023-02-28T00:02:48;5.20;99.90
48535;DHT22;34323;52.022;5.686;2023-02-28T00:05:16;5.40;99.90
48535;DHT22;34323;52.022;5.686;2023-02-28T00:07:42;5.50;99.90
48535;DHT22;34323;52.022;5.686;2023-02-28T00:10:11;5.70;99.90
48535;DHT22;34323;52.022;5.686;2023-02-28T00:12:37;6.00;99.90
48535;DHT22;34323;52.022;5.686;2023-02-28T00:15:08;6.10;99.90
48535;DHT22;34323;52.022;5.686;2023-02-28T00:17:34;6.00;99.90
48535;DHT22;34323;52.022;5.686;2023-02-28T00:20:00;6.10;99.90
48535;DHT22;34323;52.022;5.686;2023-02-28T00:22:38;6.10;99.90
48535;DHT22;34323;52.022;5.686;2023-02-28T00:25:05;6.40;99.90
48535;DHT22;34323;52.022;5.686;2023-02-28T00:27:33;6.60;99.90
48535;DHT22;34323;52.022;5.686;2023-02-28T00:29:58;6.60;99.90
48535;DHT22;34323;52.022;5.686;2023-02-28T00:32:24;6.70;99.90
48535;DHT22;34323;52.022;5.686;2023-02-28T00:34:50;6.70;99.90
48535;DHT22;34323;52.022;5.686;2023-02-28T00:37:15;6.60;99.90
48535;DHT22;34323;52.022;5.686;2023-02-28T00:39:41;6.70;99.90
48535;DHT22;34323;52.022;5.686;2023-02-28T00:42:07;6.70;99.90
48535;DHT22;34323;52.022;5.686;2023-02-28T00:44:33;6.60;99.90
48535;DHT22;34323;52.022;5.686;2023-02-28T00:46:59;6.80;99.90
48535;DHT22;34323;52.022;5.686;2023-02-28T00:49:26;6.70;99.90
48535;DHT22;34323;52.022;5.686;2023-02-28T00:51:52;6.80;99.90
48535;DHT22;34323;52.022;5.686;2023-02-28T00:54:19;6.80;99.90
48535;DHT22;34323;52.022;5.686;2023-02-28T00:56:45;6.70;99.90
48535;DHT22;34323;52.022;5.686;2023-02-28T00:59:15;6.90;99.90
48535;DHT22;34323;52.022;5.686;2023-02-28T01:01:41;7.10;99.90
48535;DHT22;34323;52.022;5.686;2023-02-28T01:04:06;7.10;99.90
48535;DHT22;34323;52.022;5.686;2023-02-28T01:06:32;7.20;99.90
48535;DHT22;34323;52.022;5.686;2023-02-28T01:08:58;7.30;99.90
48535;DHT22;34323;52.022;5.686;2023-02-28T01:11:24;7.30;99.90
48535;DHT22;34323;52.022;5.686;2023-02-28T01:13:50;7.00;99.90
48535;DHT22;34323;52.022;5.686;2023-02-28T01:16:16;6.80;99.90
48535;DHT22;34323;52.022;5.686;2023-02-28T01:18:42;6.60;99.90
48535;DHT22;34323;52.022;5.686;2023-02-28T01:21:14;6.80;99.90
48535;DHT22;34323;52.022;5.686;2023-02-28T01:23:41;6.90;99.90
48535;DHT22;34323;52.022;5.686;2023-02-28T01:26:08;6.70;99.90
48535;DHT22;34323;52.022;5.686;2023-02-28T01:28:34;6.80;99.90
48535;DHT22;34323;52.022;5.686;2023-02-28T01:31:00;6.70;99.90
48535;DHT22;34323;52.022;5.686;2023-02-28T01:33:26;6.80;99.90
48535;DHT22;34323;52.022;5.686;2023-02-28T01:35:58;6.90;99.90
48535;DHT22;34323;52.022;5.686;2023-02-28T01:38:24;6.90;99.90
48535;DHT22;34323;52.022;5.686;2023-02-28T01:40:50;6.80;99.90
48535;DHT22;34323;52.022;5.686;2023-02-28T01:43:22;6.90;99.90
48535;DHT22;34323;52.022;5.686;2023-02-28T01:45:48;7.00;99.90
48535;DHT22;34323;52.022;5.686;2023-02-28T01:48:13;6.70;99.90
48535;DHT22;34323;52.022;5.686;2023-02-28T01:50:41;6.90;99.90
48535;DHT22;34323;52.022;5.686;2023-02-28T01:53:13;6.90;99.90
48535;DHT22;34323;52.022;5.686;2023-02-28T01:55:42;6.80;99.90
48535;DHT22;34323;52.022;5.686;2023-02-28T01:58:10;6.80;99.90
48535;DHT22;34323;52.022;5.686;2023-02-28T02:00:36;6.90;99.90
48535;DHT22;34323;52.022;5.686;2023-02-28T02:03:13;7.10;99.90
48535;DHT22;34323;52.022;5.686;2023-02-28T02:05:40;7.10;99.90
48535;DHT22;34323;52.022;5.686;2023-02-28T02:08:09;7.30;99.90
48535;DHT22;34323;52.022;5.686;2023-02-28T02:10:42;7.40;99.90
48535;DHT22;34323;52.022;5.686;2023-02-28T02:18:43;7.90;99.90
48535;DHT22;34323;52.022;5.686;2023-02-28T02:24:24;8.20;99.90
48535;DHT22;34323;52.022;5.686;2023-02-28T02:30:02;8.30;99.90
48535;DHT22;34323;52.022;5.686;2023-02-28T02:35:54;8.20;99.90
48535;DHT22;34323;52.022;5.686;2023-02-28T02:41:24;8.30;99.90
48535;DHT22;34323;52.022;5.686;2023-02-28T02:43:56;8.00;99.90
48535;DHT22;34323;52.022;5.686;2023-02-28T02:46:28;7.80;99.90
48535;DHT22;34323;52.022;5.686;2023-02-28T02:48:56;7.80;99.90
48535;DHT22;34323;52.022;5.686;2023-02-28T02:51:23;8.00;99.90
48535;DHT22;34323;52.022;5.686;2023-02-28T02:53:52;7.90;99.90
48535;DHT22;34323;52.022;5.686;2023-02-28T02:56:28;8.20;99.90
48535;DHT22;34323;52.022;5.686;2023-02-28T02:59:01;8.30;99.90
48535;DHT22;34323;52.022;5.686;2023-02-28T03:01:29;8.20;99.90
48535;DHT22;34323;52.022;5.686;2023-02-28T03:04:08;7.90;99.90
48535;DHT22;34323;52.022;5.686;2023-02-28T03:06:34;8.00;99.90
48535;DHT22;34323;52.022;5.686;2023-02-28T03:09:00;8.10;99.90
48535;DHT22;34323;52.022;5.686;2023-02-28T03:11:26;8.10;99.90
48535;DHT22;34323;52.022;5.686;2023-02-28T03:14:47;8.30;99.90
48535;DHT22;34323;52.022;5.686;2023-02-28T03:19:51;8.30;99.90
48535;DHT22;34323;52.022;5.686;2023-02-28T03:22:55;8.30;99.90
48535;DHT22;34323;52.022;5.686;2023-02-28T03:28:16;8.20;99.90
48535;DHT22;34323;52.022;5.686;2023-02-28T03:30:53;8.20;99.90
48535;DHT22;34323;52.022;5.686;2023-02-28T03:33:33;8.40;99.90
48535;DHT22;34323;52.022;5.686;2023-02-28T03:36:15;8.30;99.90
48535;DHT22;34323;52.022;5.686;2023-02-28T03:38:49;8.40;99.90
48535;DHT22;34323;52.022;5.686;2023-02-28T03:41:21;8.10;99.90
48535;DHT22;34323;52.022;5.686;2023-02-28T03:43:58;8.10;99.90
48535;DHT22;34323;52.022;5.686;2023-02-28T03:46:27;8.10;99.90
48535;DHT22;34323;52.022;5.686;2023-02-28T03:49:09;8.30;99.90
48535;DHT22;34323;52.022;5.686;2023-02-28T03:51:38;8.20;99.90
48535;DHT22;34323;52.022;5.686;2023-02-28T03:54:11;8.30;99.90
48535;DHT22;34323;52.022;5.686;2023-02-28T03:56:42;8.40;99.90
48535;DHT22;34323;52.022;5.686;2023-02-28T04:02:15;8.40;99.90
48535;DHT22;34323;52.022;5.686;2023-02-28T04:04:40;8.10;99.90
48535;DHT22;34323;52.022;5.686;2023-02-28T04:07:14;7.90;99.90
48535;DHT22;34323;52.022;5.686;2023-02-28T04:09:39;7.60;99.90
48535;DHT22;34323;52.022;5.686;2023-02-28T04:12:05;7.50;99.90
48535;DHT22;34323;52.022;5.686;2023-02-28T04:14:31;7.30;99.90
48535;DHT22;34323;52.022;5.686;2023-02-28T04:16:56;7.60;99.90
48535;DHT22;34323;52.022;5.686;2023-02-28T04:19:22;7.70;99.90
48535;DHT22;34323;52.022;5.686;2023-02-28T04:21:52;7.70;99.90
48535;DHT22;34323;52.022;5.686;2023-02-28T04:24:21;7.60;99.90
48535;DHT22;34323;52.022;5.686;2023-02-28T04:26:49;7.90;99.90
48535;DHT22;34323;52.022;5.686;2023-02-28T04:31:47;8.00;99.90
48535;DHT22;34323;52.022;5.686;2023-02-28T04:34:13;7.80;99.90
48535;DHT22;34323;52.022;5.686;2023-02-28T04:36:39;7.90;99.90
48535;DHT22;34323;52.022;5.686;2023-02-28T04:39:05;8.10;99.90
48535;DHT22;34323;52.022;5.686;2023-02-28T04:41:30;8.10;99.90
48535;DHT22;34323;52.022;5.686;2023-02-28T04:43:56;8.10;99.90
48535;DHT22;34323;52.022;5.686;2023-02-28T04:46:22;8.30;99.90
48535;DHT22;34323;52.022;5.686;2023-02-28T04:48:48;8.40;99.90
48535;DHT22;34323;52.022;5.686;2023-02-28T04:51:16;8.50;99.90
48535;DHT22;34323;52.022;5.686;2023-02-28T04:53:42;8.60;99.90
48535;DHT22;34323;52.022;5.686;2023-02-28T04:56:11;8.60;99.90
48535;DHT22;34323;52.022;5.686;2023-02-28T04:58:37;8.60;99.90
48535;DHT22;34323;52.022;5.686;2023-02-28T05:01:18;8.40;99.90
48535;DHT22;34323;52.022;5.686;2023-02-28T05:03:45;8.40;99.90
48535;DHT22;34323;52.022;5.686;2023-02-28T05:06:12;8.50;99.90
48535;DHT22;34323;52.022;5.686;2023-02-28T05:08:38;8.20;99.90
48535;DHT22;34323;52.022;5.686;2023-02-28T05:11:05;8.30;99.90
48535;DHT22;34323;52.022;5.686;2023-02-28T05:13:31;8.30;99.90
48535;DHT22;34323;52.022;5.686;2023-02-28T05:15:57;8.10;99.90
48535;DHT22;34323;52.022;5.686;2023-02-28T05:18:22;8.30;99.90
48535;DHT22;34323;52.022;5.686;2023-02-28T05:20:48;8.20;99.90
48535;DHT22;34323;52.022;5.686;2023-02-28T05:23:14;8.10;99.90
48535;DHT22;34323;52.022;5.686;2023-02-28T05:25:40;8.10;99.90
48535;DHT22;34323;52.022;5.686;2023-02-28T05:28:07;8.30;99.90
48535;DHT22;34323;52.022;5.686;2023-02-28T05:30:32;8.50;99.90
48535;DHT22;34323;52.022;5.686;2023-02-28T05:32:59;8.70;99.90
48535;DHT22;34323;52.022;5.686;2023-02-28T05:35:25;8.70;99.90
48535;DHT22;34323;52.022;5.686;2023-02-28T05:37:51;8.50;99.90
48535;DHT22;34323;52.022;5.686;2023-02-28T05:40:17;8.20;99.90
48535;DHT22;34323;52.022;5.686;2023-02-28T05:42:42;8.40;99.90
48535;DHT22;34323;52.022;5.686;2023-02-28T05:45:09;8.30;99.90
48535;DHT22;34323;52.022;5.686;2023-02-28T05:47:35;8.20;99.90
48535;DHT22;34323;52.022;5.686;2023-02-28T05:50:01;8.40;99.90
48535;DHT22;34323;52.022;5.686;2023-02-28T05:52:27;8.50;99.90
48535;DHT22;34323;52.022;5.686;2023-02-28T05:54:53;8.50;99.90
48535;DHT22;34323;52.022;5.686;2023-02-28T05:57:18;8.60;99.90
48535;DHT22;34323;52.022;5.686;2023-02-28T05:59:44;8.50;99.90
48535;DHT22;34323;52.022;5.686;2023-02-28T06:02:14;8.50;99.90
48535;DHT22;34323;52.022;5.686;2023-02-28T06:04:40;8.60;99.90
48535;DHT22;34323;52.022;5.686;2023-02-28T06:07:07;8.60;99.90
48535;DHT22;34323;52.022;5.686;2023-02-28T06:09:32;8.50;99.90
48535;DHT22;34323;52.022;5.686;2023-02-28T06:11:59;8.30;99.90
48535;DHT22;34323;52.022;5.686;2023-02-28T06:14:25;8.30;99.90
48535;DHT22;34323;52.022;5.686;2023-02-28T06:16:51;8.60;99.90
48535;DHT22;34323;52.022;5.686;2023-02-28T06:19:17;8.40;99.90
48535;DHT22;34323;52.022;5.686;2023-02-28T06:21:43;8.40;99.90
48535;DHT22;34323;52.022;5.686;2023-02-28T06:24:09;8.50;99.90
48535;DHT22;34323;52.022;5.686;2023-02-28T06:26:35;8.30;99.90
48535;DHT22;34323;52.022;5.686;2023-02-28T06:29:00;8.40;99.90
48535;DHT22;34323;52.022;5.686;2023-02-28T06:31:26;8.50;99.90
48535;DHT22;34323;52.022;5.686;2023-02-28T06:33:54;8.40;99.90
48535;DHT22;34323;52.022;5.686;2023-02-28T06:36:21;8.50;99.90
48535;DHT22;34323;52.022;5.686;2023-02-28T06:38:46;8.40;99.90
48535;DHT22;34323;52.022;5.686;2023-02-28T06:41:17;8.30;99.90
48535;DHT22;34323;52.022;5.686;2023-02-28T06:43:43;8.20;99.90
48535;DHT22;34323;52.022;5.686;2023-02-28T06:46:11;8.30;99.90
48535;DHT22;34323;52.022;5.686;2023-02-28T06:48:37;8.30;99.90
48535;DHT22;34323;52.022;5.686;2023-02-28T06:51:05;8.20;99.90
48535;DHT22;34323;52.022;5.686;2023-02-28T06:53:32;8.20;99.90
48535;DHT22;34323;52.022;5.686;2023-02-28T06:55:57;8.10;99.90
48535;DHT22;34323;52.022;5.686;2023-02-28T06:58:23;8.40;99.90
48535;DHT22;34323;52.022;5.686;2023-02-28T07:00:51;8.60;99.90
48535;DHT22;34323;52.022;5.686;2023-02-28T07:03:17;8.30;99.90
48535;DHT22;34323;52.022;5.686;2023-02-28T07:05:43;8.00;99.90
48535;DHT22;34323;52.022;5.686;2023-02-28T07:08:09;8.10;99.90
48535;DHT22;34323;52.022;5.686;2023-02-28T07:10:37;8.10;99.90
48535;DHT22;34323;52.022;5.686;2023-02-28T07:13:04;8.20;99.90
48535;DHT22;34323;52.022;5.686;2023-02-28T07:15:29;8.40;99.90
48535;DHT22;34323;52.022;5.686;2023-02-28T07:17:55;8.50;99.90
48535;DHT22;34323;52.022;5.686;2023-02-28T07:20:22;8.60;99.90
48535;DHT22;34323;52.022;5.686;2023-02-28T07:22:48;8.60;99.90
48535;DHT22;34323;52.022;5.686;2023-02-28T07:25:21;8.40;99.90
48535;DHT22;34323;52.022;5.686;2023-02-28T07:27:46;8.40;99.90
48535;DHT22;34323;52.022;5.686;2023-02-28T07:30:12;8.40;99.90
48535;DHT22;34323;52.022;5.686;2023-02-28T07:32:38;8.40;99.90
48535;DHT22;34323;52.022;5.686;2023-02-28T07:35:04;8.60;99.90
48535;DHT22;34323;52.022;5.686;2023-02-28T07:37:30;8.70;99.90
48535;DHT22;34323;52.022;5.686;2023-02-28T07:40:06;8.60;99.90
48535;DHT22;34323;52.022;5.686;2023-02-28T07:42:39;8.80;99.90
48535;DHT22;34323;52.022;5.686;2023-02-28T07:45:06;8.60;99.90
48535;DHT22;34323;52.022;5.686;2023-02-28T07:47:31;9.00;99.90
48535;DHT22;34323;52.022;5.686;2023-02-28T07:49:57;9.10;99.90
48535;DHT22;34323;52.022;5.686;2023-02-28T07:52:23;9.10;99.90
48535;DHT22;34323;52.022;5.686;2023-02-28T07:54:53;9.00;99.90
48535;DHT22;34323;52.022;5.686;2023-02-28T07:57:18;9.10;99.90
48535;DHT22;34323;52.022;5.686;2023-02-28T07:59:44;9.10;99.90
48535;DHT22;34323;52.022;5.686;2023-02-28T08:02:14;9.30;99.90
48535;DHT22;34323;52.022;5.686;2023-02-28T08:04:40;9.20;99.90
48535;DHT22;34323;52.022;5.686;2023-02-28T08:07:06;9.00;99.90
48535;DHT22;34323;52.022;5.686;2023-02-28T08:09:32;8.80;99.90
48535;DHT22;34323;52.022;5.686;2023-02-28T08:11:57;8.90;99.90
48535;DHT22;34323;52.022;5.686;2023-02-28T08:14:23;9.00;99.90
48535;DHT22;34323;52.022;5.686;2023-02-28T08:16:49;9.10;99.90
48535;DHT22;34323;52.022;5.686;2023-02-28T08:19:14;9.20;99.90
48535;DHT22;34323;52.022;5.686;2023-02-28T08:21:40;9.10;99.90
48535;DHT22;34323;52.022;5.686;2023-02-28T08:24:06;9.10;99.90
48535;DHT22;34323;52.022;5.686;2023-02-28T08:26:32;9.10;99.90
48535;DHT22;34323;52.022;5.686;2023-02-28T08:28:57;8.90;99.90
48535;DHT22;34323;52.022;5.686;2023-02-28T08:31:23;8.90;99.90
48535;DHT22;34323;52.022;5.686;2023-02-28T08:33:49;8.70;99.90
48535;DHT22;34323;52.022;5.686;2023-02-28T08:36:17;8.50;99.90
48535;DHT22;34323;52.022;5.686;2023-02-28T08:38:43;8.30;99.90
48535;DHT22;34323;52.022;5.686;2023-02-28T08:41:11;8.20;99.90
48535;DHT22;34323;52.022;5.686;2023-02-28T08:43:38;8.10;99.90
48535;DHT22;34323;52.022;5.686;2023-02-28T08:46:04;8.00;99.90
48535;DHT22;34323;52.022;5.686;2023-02-28T08:48:31;8.10;99.90
48535;DHT22;34323;52.022;5.686;2023-02-28T08:51:03;8.00;99.90
48535;DHT22;34323;52.022;5.686;2023-02-28T08:53:29;8.10;99.90
48535;DHT22;34323;52.022;5.686;2023-02-28T08:56:06;8.30;99.90
48535;DHT22;34323;52.022;5.686;2023-02-28T08:58:32;8.00;99.90
48535;DHT22;34323;52.022;5.686;2023-02-28T09:00:59;7.80;99.90
48535;DHT22;34323;52.022;5.686;2023-02-28T09:03:25;7.90;99.90
48535;DHT22;34323;52.022;5.686;2023-02-28T09:05:57;7.90;99.90
48535;DHT22;34323;52.022;5.686;2023-02-28T09:08:24;8.10;99.90
48535;DHT22;34323;52.022;5.686;2023-02-28T09:10:50;8.20;99.90
48535;DHT22;34323;52.022;5.686;2023-02-28T09:13:16;8.20;99.90
48535;DHT22;34323;52.022;5.686;2023-02-28T09:15:42;8.60;99.90
48535;DHT22;34323;52.022;5.686;2023-02-28T09:18:08;8.90;99.90
48535;DHT22;34323;52.022;5.686;2023-02-28T09:20:33;8.80;99.90
48535;DHT22;34323;52.022;5.686;2023-02-28T09:22:59;8.70;99.90
48535;DHT22;34323;52.022;5.686;2023-02-28T09:25:24;8.70;99.90
48535;DHT22;34323;52.022;5.686;2023-02-28T09:27:50;9.10;99.90
48535;DHT22;34323;52.022;5.686;2023-02-28T09:30:16;8.80;99.90
48535;DHT22;34323;52.022;5.686;2023-02-28T09:32:41;8.90;99.90
48535;DHT22;34323;52.022;5.686;2023-02-28T09:35:07;9.00;99.90
48535;DHT22;34323;52.022;5.686;2023-02-28T09:37:38;9.10;99.90
48535;DHT22;34323;52.022;5.686;2023-02-28T09:40:04;9.30;99.50
48535;DHT22;34323;52.022;5.686;2023-02-28T09:42:33;9.30;99.70
48535;DHT22;34323;52.022;5.686;2023-02-28T09:45:00;9.10;98.40
48535;DHT22;34323;52.022;5.686;2023-02-28T09:47:39;8.80;98.20
48535;DHT22;34323;52.022;5.686;2023-02-28T09:52:48;8.80;99.10
48535;DHT22;34323;52.022;5.686;2023-02-28T09:57:41;9.10;99.20
48535;DHT22;34323;52.022;5.686;2023-02-28T10:00:24;9.10;98.60
48535;DHT22;34323;52.022;5.686;2023-02-28T10:03:04;9.10;98.20
48535;DHT22;34323;52.022;5.686;2023-02-28T10:05:38;9.10;98.90
48535;DHT22;34323;52.022;5.686;2023-02-28T10:08:19;9.20;98.00
48535;DHT22;34323;52.022;5.686;2023-02-28T10:11:01;9.30;98.60
48535;DHT22;34323;52.022;5.686;2023-02-28T10:14:03;9.40;98.40
48535;DHT22;34323;52.022;5.686;2023-02-28T10:16:34;9.10;97.20
48535;DHT22;34323;52.022;5.686;2023-02-28T10:22:27;9.30;98.50
48535;DHT22;34323;52.022;5.686;2023-02-28T10:24:55;9.20;98.10
48535;DHT22;34323;52.022;5.686;2023-02-28T10:27:29;9.20;97.00
48535;DHT22;34323;52.022;5.686;2023-02-28T10:29:58;9.50;98.40
48535;DHT22;34323;52.022;5.686;2023-02-28T10:32:32;9.70;96.90
48535;DHT22;34323;52.022;5.686;2023-02-28T10:35:23;10.20;98.90
48535;DHT22;34323;52.022;5.686;2023-02-28T10:37:58;10.30;97.60
48535;DHT22;34323;52.022;5.686;2023-02-28T10:45:38;11.20;97.50
48535;DHT22;34323;52.022;5.686;2023-02-28T10:48:26;10.90;97.80
48535;DHT22;34323;52.022;5.686;2023-02-28T10:50:53;11.40;97.30
48535;DHT22;34323;52.022;5.686;2023-02-28T10:58:27;12.00;97.90
48535;DHT22;34323;52.022;5.686;2023-02-28T11:00:54;11.60;96.20
48535;DHT22;34323;52.022;5.686;2023-02-28T11:03:25;10.70;97.20
48535;DHT22;34323;52.022;5.686;2023-02-28T11:05:51;10.80;97.60
48535;DHT22;34323;52.022;5.686;2023-02-28T11:08:18;10.80;97.40
48535;DHT22;34323;52.022;5.686;2023-02-28T11:10:46;11.20;98.20
48535;DHT22;34323;52.022;5.686;2023-02-28T11:13:20;11.70;98.30
48535;DHT22;34323;52.022;5.686;2023-02-28T11:15:55;12.30;99.50
48535;DHT22;34323;52.022;5.686;2023-02-28T11:18:52;12.80;98.20
48535;DHT22;34323;52.022;5.686;2023-02-28T11:21:22;12.70;97.60
48535;DHT22;34323;52.022;5.686;2023-02-28T11:23:51;12.60;98.00
48535;DHT22;34323;52.022;5.686;2023-02-28T11:26:46;12.50;96.80
48535;DHT22;34323;52.022;5.686;2023-02-28T11:29:25;12.30;96.10
48535;DHT22;34323;52.022;5.686;2023-02-28T11:32:24;12.40;97.70
48535;DHT22;34323;52.022;5.686;2023-02-28T11:35:03;12.70;97.40
48535;DHT22;34323;52.022;5.686;2023-02-28T11:37:31;12.90;96.10
48535;DHT22;34323;52.022;5.686;2023-02-28T11:39:57;12.90;96.90
48535;DHT22;34323;52.022;5.686;2023-02-28T11:45:36;13.00;98.00
48535;DHT22;34323;52.022;5.686;2023-02-28T11:48:27;13.30;97.70
48535;DHT22;34323;52.022;5.686;2023-02-28T11:51:03;13.70;97.40
48535;DHT22;34323;52.022;5.686;2023-02-28T12:01:28;13.70;96.60
48535;DHT22;34323;52.022;5.686;2023-02-28T12:06:47;14.00;97.20
48535;DHT22;34323;52.022;5.686;2023-02-28T12:12:19;14.40;96.30
48535;DHT22;34323;52.022;5.686;2023-02-28T12:15:12;14.70;96.70
48535;DHT22;34323;52.022;5.686;2023-02-28T12:17:57;14.80;96.10
48535;DHT22;34323;52.022;5.686;2023-02-28T12:20:33;14.90;96.10
48535;DHT22;34323;52.022;5.686;2023-02-28T12:26:02;15.00;95.70
48535;DHT22;34323;52.022;5.686;2023-02-28T12:28:37;14.10;96.00
48535;DHT22;34323;52.022;5.686;2023-02-28T12:31:12;13.90;96.40
48535;DHT22;34323;52.022;5.686;2023-02-28T12:33:46;14.00;94.80
48535;DHT22;34323;52.022;5.686;2023-02-28T12:36:17;13.40;94.80
48535;DHT22;34323;52.022;5.686;2023-02-28T12:39:05;13.40;95.60
48535;DHT22;34323;52.022;5.686;2023-02-28T12:41:48;13.90;95.80
48535;DHT22;34323;52.022;5.686;2023-02-28T12:44:23;14.10;95.10
48535;DHT22;34323;52.022;5.686;2023-02-28T12:46:55;13.80;94.90
48535;DHT22;34323;52.022;5.686;2023-02-28T12:49:30;14.00;94.80
48535;DHT22;34323;52.022;5.686;2023-02-28T12:51:59;14.60;95.60
48535;DHT22;34323;52.022;5.686;2023-02-28T12:57:04;15.50;96.20
48535;DHT22;34323;52.022;5.686;2023-02-28T12:59:41;15.40;95.10
48535;DHT22;34323;52.022;5.686;2023-02-28T13:02:51;15.60;95.40
48535;DHT22;34323;52.022;5.686;2023-02-28T13:08:43;15.90;95.20
48535;DHT22;34323;52.022;5.686;2023-02-28T13:11:39;16.60;94.90
48535;DHT22;34323;52.022;5.686;2023-02-28T13:14:28;16.80;94.40
48535;DHT22;34323;52.022;5.686;2023-02-28T13:19:34;18.20;93.40
48535;DHT22;34323;52.022;5.686;2023-02-28T13:22:01;19.00;93.60
48535;DHT22;34323;52.022;5.686;2023-02-28T13:24:43;19.40;92.80
48535;DHT22;34323;52.022;5.686;2023-02-28T13:29:36;20.00;93.80
48535;DHT22;34323;52.022;5.686;2023-02-28T13:34:41;21.40;92.00
48535;DHT22;34323;52.022;5.686;2023-02-28T13:37:41;21.20;92.00
48535;DHT22;34323;52.022;5.686;2023-02-28T13:42:49;21.40;90.00
48535;DHT22;34323;52.022;5.686;2023-02-28T13:45:22;21.10;91.70
48535;DHT22;34323;52.022;5.686;2023-02-28T13:50:34;21.30;92.20
48535;DHT22;34323;52.022;5.686;2023-02-28T13:59:01;20.60;90.80
48535;DHT22;34323;52.022;5.686;2023-02-28T14:02:11;21.30;91.80
48535;DHT22;34323;52.022;5.686;2023-02-28T14:07:48;20.70;89.50
48535;DHT22;34323;52.022;5.686;2023-02-28T14:10:32;20.00;90.20
48535;DHT22;34323;52.022;5.686;2023-02-28T14:16:04;20.50;90.30
48535;DHT22;34323;52.022;5.686;2023-02-28T14:18:35;20.90;90.10
48535;DHT22;34323;52.022;5.686;2023-02-28T14:27:08;20.00;89.90
48535;DHT22;34323;52.022;5.686;2023-02-28T14:29:59;20.20;90.90
48535;DHT22;34323;52.022;5.686;2023-02-28T14:33:05;20.40;90.10
48535;DHT22;34323;52.022;5.686;2023-02-28T14:36:04;20.40;90.30
48535;DHT22;34323;52.022;5.686;2023-02-28T14:38:35;21.70;90.40
48535;DHT22;34323;52.022;5.686;2023-02-28T14:41:05;21.50;88.80
48535;DHT22;34323;52.022;5.686;2023-02-28T14:43:32;20.70;87.50
48535;DHT22;34323;52.022;5.686;2023-02-28T14:46:02;20.40;89.00
48535;DHT22;34323;52.022;5.686;2023-02-28T14:48:29;21.00;89.30
48535;DHT22;34323;52.022;5.686;2023-02-28T14:50:59;21.00;89.30
48535;DHT22;34323;52.022;5.686;2023-02-28T14:53:34;20.40;89.50
48535;DHT22;34323;52.022;5.686;2023-02-28T14:56:00;20.30;90.00
48535;DHT22;34323;52.022;5.686;2023-02-28T14:58:28;19.90;89.70
48535;DHT22;34323;52.022;5.686;2023-02-28T15:01:02;19.00;89.80
48535;DHT22;34323;52.022;5.686;2023-02-28T15:03:37;18.80;89.00
48535;DHT22;34323;52.022;5.686;2023-02-28T15:06:17;18.90;89.90
48535;DHT22;34323;52.022;5.686;2023-02-28T15:08:43;19.10;90.30
48535;DHT22;34323;52.022;5.686;2023-02-28T15:11:17;18.70;90.80
48535;DHT22;34323;52.022;5.686;2023-02-28T15:13:54;19.10;90.60
48535;DHT22;34323;52.022;5.686;2023-02-28T15:16:32;19.20;90.10
48535;DHT22;34323;52.022;5.686;2023-02-28T15:19:01;19.80;90.30
48535;DHT22;34323;52.022;5.686;2023-02-28T15:21:31;19.40;90.40
48535;DHT22;34323;52.022;5.686;2023-02-28T15:26:42;18.40;90.50
48535;DHT22;34323;52.022;5.686;2023-02-28T15:29:14;17.90;90.60
48535;DHT22;34323;52.022;5.686;2023-02-28T15:32:02;18.00;90.90
48535;DHT22;34323;52.022;5.686;2023-02-28T15:34:38;18.50;90.30
48535;DHT22;34323;52.022;5.686;2023-02-28T15:40:11;19.90;90.10
48535;DHT22;34323;52.022;5.686;2023-02-28T15:42:38;18.70;89.40
48535;DHT22;34323;52.022;5.686;2023-02-28T15:45:04;18.70;90.40
48535;DHT22;34323;52.022;5.686;2023-02-28T15:47:30;18.10;90.70
48535;DHT22;34323;52.022;5.686;2023-02-28T15:50:02;17.90;90.30
48535;DHT22;34323;52.022;5.686;2023-02-28T15:52:48;18.30;90.30
48535;DHT22;34323;52.022;5.686;2023-02-28T15:55:20;18.40;90.30
48535;DHT22;34323;52.022;5.686;2023-02-28T15:57:50;18.30;90.70
48535;DHT22;34323;52.022;5.686;2023-02-28T16:00:20;19.20;90.40
48535;DHT22;34323;52.022;5.686;2023-02-28T16:02:46;19.50;90.60
48535;DHT22;34323;52.022;5.686;2023-02-28T16:05:30;19.00;90.10
48535;DHT22;34323;52.022;5.686;2023-02-28T16:08:06;17.30;90.30
48535;DHT22;34323;52.022;5.686;2023-02-28T16:10:36;17.10;90.80
48535;DHT22;34323;52.022;5.686;2023-02-28T16:13:02;17.20;90.80
48535;DHT22;34323;52.022;5.686;2023-02-28T16:15:30;16.80;91.70
48535;DHT22;34323;52.022;5.686;2023-02-28T16:17:57;16.00;91.20
48535;DHT22;34323;52.022;5.686;2023-02-28T16:20:29;15.60;91.70
48535;DHT22;34323;52.022;5.686;2023-02-28T16:22:55;15.10;91.40
48535;DHT22;34323;52.022;5.686;2023-02-28T16:25:33;14.80;91.90
48535;DHT22;34323;52.022;5.686;2023-02-28T16:27:59;14.00;92.30
48535;DHT22;34323;52.022;5.686;2023-02-28T16:30:27;13.90;92.30
48535;DHT22;34323;52.022;5.686;2023-02-28T16:32:56;13.40;92.40
48535;DHT22;34323;52.022;5.686;2023-02-28T16:35:22;13.50;93.10
48535;DHT22;34323;52.022;5.686;2023-02-28T16:37:48;13.50;92.80
48535;DHT22;34323;52.022;5.686;2023-02-28T16:40:25;13.50;92.60
48535;DHT22;34323;52.022;5.686;2023-02-28T16:42:53;13.40;93.20
48535;DHT22;34323;52.022;5.686;2023-02-28T16:45:23;13.00;92.80
48535;DHT22;34323;52.022;5.686;2023-02-28T16:47:50;12.80;93.60
48535;DHT22;34323;52.022;5.686;2023-02-28T16:50:24;12.70;93.20
48535;DHT22;34323;52.022;5.686;2023-02-28T16:52:50;12.60;93.90
48535;DHT22;34323;52.022;5.686;2023-02-28T16:55:18;12.50;93.80
48535;DHT22;34323;52.022;5.686;2023-02-28T16:57:44;12.40;94.00
48535;DHT22;34323;52.022;5.686;2023-02-28T17:00:13;12.20;94.70
48535;DHT22;34323;52.022;5.686;2023-02-28T17:02:39;12.00;94.20
48535;DHT22;34323;52.022;5.686;2023-02-28T17:05:05;11.80;94.30
48535;DHT22;34323;52.022;5.686;2023-02-28T17:07:32;11.70;94.70
48535;DHT22;34323;52.022;5.686;2023-02-28T17:09:58;11.20;94.60
48535;DHT22;34323;52.022;5.686;2023-02-28T17:12:24;10.80;95.30
48535;DHT22;34323;52.022;5.686;2023-02-28T17:14:50;10.50;95.20
48535;DHT22;34323;52.022;5.686;2023-02-28T17:17:17;10.20;95.70
48535;DHT22;34323;52.022;5.686;2023-02-28T17:19:43;9.80;95.40
48535;DHT22;34323;52.022;5.686;2023-02-28T17:22:09;9.60;96.20
48535;DHT22;34323;52.022;5.686;2023-02-28T17:24:35;9.60;96.00
48535;DHT22;34323;52.022;5.686;2023-02-28T17:27:01;9.50;96.30
48535;DHT22;34323;52.022;5.686;2023-02-28T17:29:27;9.30;96.70
48535;DHT22;34323;52.022;5.686;2023-02-28T17:31:52;9.10;97.00
48535;DHT22;34323;52.022;5.686;2023-02-28T17:34:18;8.90;97.30
48535;DHT22;34323;52.022;5.686;2023-02-28T17:36:46;8.50;97.80
48535;DHT22;34323;52.022;5.686;2023-02-28T17:39:13;8.40;98.10
48535;DHT22;34323;52.022;5.686;2023-02-28T17:41:49;8.30;98.00
48535;DHT22;34323;52.022;5.686;2023-02-28T17:44:15;8.10;98.30
48535;DHT22;34323;52.022;5.686;2023-02-28T17:46:41;8.00;98.50
48535;DHT22;34323;52.022;5.686;2023-02-28T17:49:08;8.10;98.60